Time;durP1;ratioP1;P1;durP2;ratioP2;P2;SDS_P1;SDS_P2;PMS_P1;PMS_P2;Temp;Humidity;BMP_temperature;BMP_pressure;BME280_temperature;BME280_humidity;BME280_pressure;Samples;Min_cycle;Max_cycle;Signal;HPM_P1;HPM_P2
2021/01/06 00:01:01;;;;;;;12.60;7.70;;;3.60;85.70;;;;;;5071646;28;20404;-73
2021/01/06 00:03:27;;;;;;;18.40;9.17;;;3.50;86.00;;;;;;5071573;28;20183;-71
2021/01/06 00:05:56;;;;;;;13.70;8.20;;;3.50;86.10;;;;;;5071609;28;20434;-72
2021/01/06 00:08:23;;;;;;;19.50;8.73;;;3.50;86.30;;;;;;5071414;28;20465;-70
2021/01/06 00:10:53;;;;;;;16.07;8.90;;;3.50;86.60;;;;;;5071433;28;20418;-71
2021/01/06 00:13:19;;;;;;;17.67;8.17;;;3.50;86.60;;;;;;5070977;28;20404;-71
2021/01/06 00:15:46;;;;;;;18.20;8.03;;;3.50;87.00;;;;;;5071476;28;20450;-71
2021/01/06 00:18:13;;;;;;;15.93;9.60;;;3.50;87.40;;;;;;5071051;28;20431;-70
2021/01/06 00:20:39;;;;;;;23.43;9.60;;;3.50;87.70;;;;;;5071807;28;20421;-73
2021/01/06 00:23:05;;;;;;;16.87;8.90;;;3.50;88.00;;;;;;5071604;28;20399;-72
2021/01/06 00:25:33;;;;;;;18.20;10.83;;;3.50;88.20;;;;;;5070046;28;20486;-71
2021/01/06 00:28:00;;;;;;;18.53;9.50;;;3.50;88.60;;;;;;5071035;28;20451;-72
2021/01/06 00:30:35;;;;;;;20.60;11.13;;;3.50;88.70;;;;;;5071087;28;20425;-72
2021/01/06 00:33:07;;;;;;;18.17;8.30;;;3.50;88.80;;;;;;5071819;28;20402;-72
2021/01/06 00:35:33;;;;;;;21.27;10.07;;;3.50;89.30;;;;;;5071387;28;20498;-71
2021/01/06 00:38:00;;;;;;;16.20;9.07;;;3.50;89.60;;;;;;5071091;28;20928;-72
2021/01/06 00:40:32;;;;;;;17.73;8.77;;;3.50;89.90;;;;;;5071307;28;21018;-70
2021/01/06 00:43:05;;;;;;;16.67;8.60;;;3.50;90.00;;;;;;5053389;28;20791;-72
2021/01/06 00:45:31;;;;;;;20.67;9.97;;;3.40;90.10;;;;;;5069880;28;20408;-72
2021/01/06 00:47:57;;;;;;;20.03;8.87;;;3.40;90.20;;;;;;5069491;28;20423;-72
2021/01/06 00:50:26;;;;;;;17.43;9.03;;;3.40;90.20;;;;;;5071114;28;20404;-71
2021/01/06 00:52:57;;;;;;;18.20;7.87;;;3.40;90.30;;;;;;5069989;28;20173;-70
2021/01/06 00:55:23;;;;;;;16.90;8.80;;;3.40;90.50;;;;;;5069838;28;20450;-72
2021/01/06 00:57:51;;;;;;;24.30;10.10;;;3.40;90.50;;;;;;5053201;28;20466;-71
2021/01/06 01:00:19;;;;;;;18.43;8.23;;;3.40;90.70;;;;;;5069937;28;20407;-70
2021/01/06 01:02:51;;;;;;;23.60;9.67;;;3.40;90.70;;;;;;5069945;28;20427;-71
2021/01/06 01:05:25;;;;;;;18.50;10.60;;;3.40;90.80;;;;;;5069634;28;20412;-72
2021/01/06 01:07:51;;;;;;;22.60;10.10;;;3.40;90.90;;;;;;5070601;28;20423;-72
2021/01/06 01:10:44;;;;;;;25.07;10.60;;;3.40;91.40;;;;;;5071130;28;20414;-71
2021/01/06 01:13:19;;;;;;;28.83;11.00;;;3.40;91.10;;;;;;5070723;28;20487;-70
2021/01/06 01:15:47;;;;;;;23.60;9.60;;;3.40;91.10;;;;;;5069120;28;20454;-71
2021/01/06 01:18:17;;;;;;;21.70;10.20;;;3.40;91.10;;;;;;5070595;28;20458;-71
2021/01/06 01:20:44;;;;;;;18.97;10.10;;;3.40;91.30;;;;;;5070617;28;20407;-71
2021/01/06 01:23:11;;;;;;;23.30;10.17;;;3.40;91.30;;;;;;5070772;28;20439;-71
2021/01/06 01:25:37;;;;;;;20.37;10.03;;;3.40;91.40;;;;;;5069797;28;20416;-72
2021/01/06 01:28:02;;;;;;;16.70;9.70;;;3.40;91.40;;;;;;5069384;28;20445;-72
2021/01/06 01:30:29;;;;;;;18.57;9.80;;;3.40;91.50;;;;;;5070597;28;20223;-72
2021/01/06 01:32:55;;;;;;;19.20;9.90;;;3.40;91.50;;;;;;5071448;28;20177;-71
2021/01/06 01:35:25;;;;;;;20.50;9.73;;;3.40;91.50;;;;;;5075886;28;20447;-71
2021/01/06 01:37:51;;;;;;;19.90;9.90;;;3.40;91.60;;;;;;5078249;28;20430;-71
2021/01/06 01:40:30;;;;;;;20.03;8.87;;;3.40;91.60;;;;;;5075208;28;20447;-71
2021/01/06 01:43:02;;;;;;;17.57;8.87;;;3.40;91.60;;;;;;5075736;28;20411;-71
2021/01/06 01:45:39;;;;;;;22.90;10.80;;;3.40;91.60;;;;;;5075727;28;20395;-70
2021/01/06 01:48:28;;;;;;;20.47;9.10;;;3.40;91.60;;;;;;5074793;28;20440;-71
2021/01/06 01:51:00;;;;;;;20.70;10.00;;;3.40;91.60;;;;;;5075550;28;20399;-71
2021/01/06 01:53:40;;;;;;;19.70;9.83;;;3.40;91.70;;;;;;5074830;28;20779;-71
2021/01/06 01:56:09;;;;;;;20.77;10.63;;;3.40;91.70;;;;;;5075523;28;20985;-72
2021/01/06 01:58:36;;;;;;;19.23;8.80;;;3.40;91.70;;;;;;5075244;28;20464;-71
2021/01/06 02:01:03;;;;;;;18.70;9.60;;;3.40;91.60;;;;;;5074454;28;20449;-72
2021/01/06 02:03:38;;;;;;;16.27;9.53;;;3.40;91.50;;;;;;5075212;28;20430;-71
2021/01/06 02:06:10;;;;;;;22.93;9.37;;;3.50;91.60;;;;;;5075087;28;20444;-71
2021/01/06 02:08:46;;;;;;;19.33;8.80;;;3.50;91.50;;;;;;5073053;28;20451;-71
2021/01/06 02:11:27;;;;;;;17.37;7.40;;;3.50;91.30;;;;;;5074165;28;20486;-70
2021/01/06 02:14:01;;;;;;;15.73;7.80;;;3.50;91.20;;;;;;5072480;28;20855;-70
2021/01/06 02:16:50;;;;;;;17.73;8.13;;;3.50;91.10;;;;;;5073964;28;20516;-71
2021/01/06 02:19:18;;;;;;;14.90;7.70;;;3.60;91.10;;;;;;5074166;28;20476;-71
2021/01/06 02:21:44;;;;;;;14.23;8.27;;;3.60;91.00;;;;;;5074435;28;20438;-71
2021/01/06 02:24:10;;;;;;;15.60;8.40;;;3.60;90.80;;;;;;5074302;28;20465;-74
2021/01/06 02:26:36;;;;;;;14.13;8.13;;;3.60;90.80;;;;;;5073796;28;20441;-73
2021/01/06 02:29:02;;;;;;;13.97;7.43;;;3.60;90.80;;;;;;5072821;28;20169;-71
2021/01/06 02:31:28;;;;;;;15.43;7.90;;;3.60;90.70;;;;;;5073880;28;20168;-71
2021/01/06 02:33:54;;;;;;;13.63;7.27;;;3.60;90.60;;;;;;5073891;28;20530;-70
2021/01/06 02:36:22;;;;;;;14.20;7.30;;;3.60;90.60;;;;;;5073274;28;20435;-71
2021/01/06 02:38:48;;;;;;;16.80;7.47;;;3.70;90.60;;;;;;5073384;28;20940;-71
2021/01/06 02:41:14;;;;;;;14.13;7.53;;;3.70;90.60;;;;;;5073945;28;20772;-70
2021/01/06 02:43:42;;;;;;;12.33;6.40;;;3.70;90.50;;;;;;5074030;28;20814;-70
2021/01/06 02:46:08;;;;;;;13.80;7.77;;;3.70;90.50;;;;;;5072991;28;20411;-72
2021/01/06 02:48:35;;;;;;;12.20;7.00;;;3.70;90.50;;;;;;5072628;28;20959;-70
2021/01/06 02:51:08;;;;;;;12.13;7.00;;;3.70;90.60;;;;;;5073785;28;20490;-72
2021/01/06 02:53:49;;;;;;;16.23;6.63;;;3.70;90.60;;;;;;5073017;28;20439;-70
2021/01/06 02:56:17;;;;;;;18.03;7.53;;;3.70;90.60;;;;;;5073579;28;20967;-71
2021/01/06 02:58:45;;;;;;;14.03;6.90;;;3.70;91.00;;;;;;5073816;28;20509;-71
2021/01/06 03:01:13;;;;;;;13.33;7.30;;;3.70;90.70;;;;;;5074109;28;20842;-71
2021/01/06 03:03:41;;;;;;;12.30;6.93;;;3.70;90.70;;;;;;5072804;28;20412;-70
2021/01/06 03:06:12;;;;;;;12.73;6.63;;;3.70;90.70;;;;;;5072982;28;20415;-70
2021/01/06 03:08:39;;;;;;;14.87;7.50;;;3.70;90.60;;;;;;5072688;28;20444;-71
2021/01/06 03:11:06;;;;;;;15.17;7.17;;;3.70;90.60;;;;;;5072874;28;20415;-71
2021/01/06 03:13:33;;;;;;;13.37;7.13;;;3.70;90.60;;;;;;5072153;28;20410;-71
2021/01/06 03:15:59;;;;;;;16.53;7.83;;;3.70;90.60;;;;;;5072771;28;21042;-71
2021/01/06 03:18:25;;;;;;;16.60;6.70;;;3.70;90.60;;;;;;5072648;28;20446;-71
2021/01/06 03:20:56;;;;;;;18.10;7.70;;;3.70;90.60;;;;;;5064462;22;20501;-72
2021/01/06 03:23:30;;;;;;;15.17;8.17;;;3.70;90.60;;;;;;5032227;28;20221;-73
2021/01/06 03:25:58;;;;;;;12.33;7.63;;;3.70;90.60;;;;;;5014536;28;20456;-71
2021/01/06 03:28:27;;;;;;;14.40;7.90;;;3.80;90.60;;;;;;5031763;28;20414;-71
2021/01/06 03:30:55;;;;;;;15.20;8.27;;;3.80;90.60;;;;;;5031969;28;20472;-71
2021/01/06 03:33:26;;;;;;;12.23;7.57;;;3.80;90.60;;;;;;5031739;28;20976;-70
2021/01/06 03:35:56;;;;;;;11.27;8.03;;;3.80;90.70;;;;;;5032540;28;20460;-71
2021/01/06 03:38:36;;;;;;;12.20;7.70;;;3.80;90.70;;;;;;5031680;28;20975;-72
2021/01/06 03:41:05;;;;;;;13.77;7.67;;;3.80;90.70;;;;;;5031552;28;20440;-72
2021/01/06 03:43:33;;;;;;;12.67;7.80;;;3.80;90.70;;;;;;5031789;28;20774;-72
2021/01/06 03:46:18;;;;;;;15.10;7.93;;;3.80;90.60;;;;;;5030961;28;20550;-71
2021/01/06 03:48:49;;;;;;;12.70;7.37;;;3.80;90.60;;;;;;5031681;28;20427;-71
2021/01/06 03:51:44;;;;;;;13.00;7.80;;;3.80;90.60;;;;;;5031810;28;20559;-71
2021/01/06 03:54:32;;;;;;;12.83;7.10;;;3.80;90.60;;;;;;5032020;28;20409;-71
2021/01/06 03:57:01;;;;;;;15.23;8.30;;;3.80;90.50;;;;;;5031901;28;20503;-72
2021/01/06 03:59:30;;;;;;;15.93;8.17;;;3.80;90.50;;;;;;5031425;28;20409;-72
2021/01/06 04:02:14;;;;;;;12.20;6.90;;;3.80;90.40;;;;;;5014223;28;20425;-72
2021/01/06 04:04:59;;;;;;;11.43;6.87;;;3.80;90.40;;;;;;5031803;28;20484;-71
2021/01/06 04:07:33;;;;;;;12.50;7.40;;;3.90;90.60;;;;;;5031207;28;20475;-71
2021/01/06 04:10:08;;;;;;;12.63;7.40;;;3.90;90.50;;;;;;5031546;28;20428;-72
2021/01/06 04:12:34;;;;;;;15.87;7.50;;;3.90;90.40;;;;;;5032587;28;20809;-72
2021/01/06 04:15:00;;;;;;;13.63;7.67;;;3.90;90.40;;;;;;5031597;28;20448;-72
2021/01/06 04:17:34;;;;;;;14.30;7.97;;;3.90;90.40;;;;;;5031190;28;20492;-73
2021/01/06 04:20:07;;;;;;;15.40;7.77;;;3.90;90.30;;;;;;5013526;28;20197;-72
2021/01/06 04:22:44;;;;;;;14.97;8.40;;;3.90;90.30;;;;;;5031256;28;20486;-72
2021/01/06 04:25:27;;;;;;;14.17;7.70;;;3.90;90.20;;;;;;5031104;28;20420;-73
2021/01/06 04:27:56;;;;;;;13.33;8.00;;;3.90;90.10;;;;;;5031023;28;20453;-73
2021/01/06 04:30:45;;;;;;;12.93;6.80;;;4.00;90.10;;;;;;5031317;28;20463;-72
2021/01/06 04:33:12;;;;;;;12.20;7.07;;;4.00;90.10;;;;;;5031430;28;20405;-73
2021/01/06 04:35:38;;;;;;;12.67;6.67;;;4.00;90.10;;;;;;5031594;28;20476;-70
2021/01/06 04:38:05;;;;;;;13.27;7.70;;;4.00;90.00;;;;;;5013094;28;20976;-73
2021/01/06 04:40:36;;;;;;;15.30;7.57;;;4.00;90.00;;;;;;5031313;28;20190;-71
2021/01/06 04:43:13;;;;;;;13.67;7.33;;;4.00;90.00;;;;;;5031119;28;20981;-73
2021/01/06 04:45:43;;;;;;;17.10;6.90;;;4.00;90.10;;;;;;5031220;28;20405;-72
2021/01/06 04:48:37;;;;;;;13.73;7.10;;;4.00;90.20;;;;;;5030728;28;20405;-72
2021/01/06 04:51:14;;;;;;;14.73;8.87;;;4.00;90.20;;;;;;5030831;28;20433;-73
2021/01/06 04:53:50;;;;;;;15.00;8.30;;;4.00;90.40;;;;;;5031331;28;20908;-73
2021/01/06 04:56:44;;;;;;;12.50;7.63;;;4.00;90.60;;;;;;5030894;28;20456;-73
2021/01/06 04:59:29;;;;;;;12.37;6.33;;;3.90;90.50;;;;;;5030818;28;20401;-71
2021/01/06 05:02:16;;;;;;;8.90;6.13;;;3.90;90.30;;;;;;5030761;28;20405;-73
2021/01/06 05:05:01;;;;;;;10.43;5.40;;;3.90;90.30;;;;;;5030906;28;20901;-72
2021/01/06 05:08:04;;;;;;;8.90;5.83;;;3.90;90.20;;;;;;5030457;28;20413;-73
2021/01/06 05:10:36;;;;;;;11.23;6.60;;;3.90;90.20;;;;;;5030214;28;20436;-71
2021/01/06 05:13:14;;;;;;;8.90;5.97;;;3.80;89.90;;;;;;5029109;28;20421;-72
2021/01/06 05:15:57;;;;;;;11.50;5.40;;;3.80;89.60;;;;;;5030023;28;20471;-72
2021/01/06 05:18:24;;;;;;;11.50;4.80;;;3.70;89.90;;;;;;5029713;28;20567;-72
2021/01/06 05:20:50;;;;;;;11.07;4.93;;;3.70;90.10;;;;;;5030075;28;20440;-72
2021/01/06 05:23:19;;;;;;;11.90;5.10;;;3.70;90.30;;;;;;5030304;28;20444;-71
2021/01/06 05:25:45;;;;;;;8.03;4.77;;;3.70;90.40;;;;;;5030448;28;20205;-73
2021/01/06 05:28:14;;;;;;;7.10;4.03;;;3.60;90.40;;;;;;5029981;28;20409;-71
2021/01/06 05:30:40;;;;;;;13.03;5.90;;;3.60;90.40;;;;;;5029889;28;20439;-71
2021/01/06 05:33:12;;;;;;;8.50;5.37;;;3.50;90.40;;;;;;5029444;28;20415;-71
2021/01/06 05:35:44;;;;;;;9.60;4.87;;;3.50;90.50;;;;;;5030515;28;20513;-71
2021/01/06 05:38:10;;;;;;;9.93;5.13;;;3.50;90.70;;;;;;5030083;28;20417;-71
2021/01/06 05:40:38;;;;;;;12.13;5.77;;;3.50;90.80;;;;;;5029710;28;20440;-71
2021/01/06 05:43:07;;;;;;;9.23;5.03;;;3.40;90.90;;;;;;5030358;28;20624;-72
2021/01/06 05:45:48;;;;;;;13.20;6.70;;;3.40;91.10;;;;;;5030124;28;20472;-71
2021/01/06 05:48:19;;;;;;;13.00;6.77;;;3.40;91.30;;;;;;5029624;28;20535;-71
2021/01/06 05:51:10;;;;;;;14.17;6.23;;;3.40;91.50;;;;;;5029928;28;20495;-71
2021/01/06 05:54:02;;;;;;;17.20;5.60;;;3.50;91.60;;;;;;5029788;28;20902;-71
2021/01/06 05:56:36;;;;;;;14.70;6.10;;;3.50;91.70;;;;;;5029897;28;20456;-72
2021/01/06 05:59:36;;;;;;;11.60;6.07;;;3.50;91.70;;;;;;5029785;28;20511;-71
2021/01/06 06:02:12;;;;;;;15.07;6.93;;;3.50;91.70;;;;;;5004311;28;20405;-71
2021/01/06 06:04:45;;;;;;;12.43;7.13;;;3.50;91.80;;;;;;5029914;28;20443;-73
2021/01/06 06:07:22;;;;;;;21.63;8.70;;;3.50;91.90;;;;;;5030195;28;20413;-73
2021/01/06 06:10:03;;;;;;;11.43;6.97;;;3.50;91.90;;;;;;5013255;28;20405;-73
2021/01/06 06:12:35;;;;;;;13.37;7.30;;;3.50;92.00;;;;;;5030324;28;20828;-72
2021/01/06 06:15:15;;;;;;;13.77;6.10;;;3.50;92.00;;;;;;5029816;28;20495;-71
2021/01/06 06:18:02;;;;;;;10.87;5.73;;;3.50;92.00;;;;;;5028351;28;20413;-71
2021/01/06 06:20:49;;;;;;;13.90;8.13;;;3.50;92.10;;;;;;5030103;28;20436;-72
2021/01/06 06:23:33;;;;;;;16.50;8.97;;;3.50;92.10;;;;;;5033469;28;20405;-70
2021/01/06 06:26:05;;;;;;;10.50;6.50;;;3.50;92.20;;;;;;5033389;28;20428;-71
2021/01/06 06:28:42;;;;;;;12.33;7.23;;;3.50;92.20;;;;;;5032978;28;20404;-71
2021/01/06 06:31:25;;;;;;;19.33;10.20;;;3.50;92.30;;;;;;5033037;28;20443;-71
2021/01/06 06:33:57;;;;;;;12.80;8.13;;;3.50;92.30;;;;;;5033195;28;20409;-71
2021/01/06 06:36:25;;;;;;;16.40;8.63;;;3.60;92.30;;;;;;5032935;28;20456;-71
2021/01/06 06:38:51;;;;;;;14.07;7.97;;;3.60;92.00;;;;;;5032983;28;20405;-72
2021/01/06 06:41:23;;;;;;;10.60;6.00;;;3.60;91.70;;;;;;5033426;28;20439;-73
2021/01/06 06:44:10;;;;;;;10.93;6.50;;;3.60;91.30;;;;;;5033238;28;20429;-72
2021/01/06 06:46:44;;;;;;;15.70;7.70;;;3.60;91.00;;;;;;5033777;28;20835;-72
2021/01/06 06:49:33;;;;;;;13.30;6.50;;;3.60;90.90;;;;;;5033621;28;20478;-72
2021/01/06 06:52:05;;;;;;;8.00;5.40;;;3.60;90.80;;;;;;5033762;28;20420;-72
2021/01/06 06:55:18;;;;;;;9.40;5.53;;;3.60;90.60;;;;;;5033568;28;20913;-72
2021/01/06 06:57:53;;;;;;;10.90;5.77;;;3.70;90.30;;;;;;4986702;28;20952;-72
2021/01/06 07:00:25;;;;;;;8.30;5.00;;;3.60;90.00;;;;;;5032818;28;20786;-73
2021/01/06 07:03:03;;;;;;;9.20;5.63;;;3.70;89.80;;;;;;5033442;28;20482;-71
2021/01/06 07:05:32;;;;;;;8.30;5.57;;;3.70;89.40;;;;;;5034805;28;20508;-76
2021/01/06 07:08:03;;;;;;;14.33;7.70;;;3.70;89.10;;;;;;5034297;28;20432;-78
2021/01/06 07:10:36;;;;;;;12.63;6.50;;;3.70;88.80;;;;;;5033531;28;20453;-79
2021/01/06 07:13:16;;;;;;;13.13;7.53;;;3.70;88.50;;;;;;5033977;28;20743;-78
2021/01/06 07:15:49;;;;;;;14.83;8.60;;;3.70;88.20;;;;;;5034500;28;20841;-78
2021/01/06 07:18:25;;;;;;;12.63;7.40;;;3.70;88.00;;;;;;5050058;28;20498;-77
2021/01/06 07:21:05;;;;;;;14.67;8.60;;;3.80;88.10;;;;;;5054538;28;20811;-77
2021/01/06 07:23:33;;;;;;;13.20;8.53;;;3.70;88.20;;;;;;5054142;28;20408;-78
2021/01/06 07:26:13;;;;;;;14.57;8.57;;;3.70;88.10;;;;;;5054296;28;20699;-77
2021/01/06 07:28:40;;;;;;;21.00;8.50;;;3.70;87.80;;;;;;5035388;28;20903;-79
2021/01/06 07:31:17;;;;;;;13.50;7.53;;;3.70;87.60;;;;;;5053509;28;20455;-78
2021/01/06 07:33:45;;;;;;;11.27;6.90;;;3.70;87.80;;;;;;5052894;28;20916;-78
2021/01/06 07:36:24;;;;;;;12.40;7.70;;;3.70;87.50;;;;;;5054036;28;20452;-78
2021/01/06 07:38:51;;;;;;;11.20;7.83;;;3.70;87.20;;;;;;5034971;28;20412;-80
2021/01/06 07:41:19;;;;;;;16.13;9.80;;;3.70;87.40;;;;;;5053416;28;20535;-79
2021/01/06 07:44:17;;;;;;;20.03;8.63;;;3.70;87.30;;;;;;5055043;28;20412;-79
2021/01/06 07:47:14;;;;;;;15.37;8.97;;;3.70;87.30;;;;;;5050351;28;20887;-78
2021/01/06 07:49:58;;;;;;;10.10;7.10;;;3.70;87.40;;;;;;5031071;28;20421;-78
2021/01/06 07:52:51;;;;;;;19.90;8.80;;;3.70;87.50;;;;;;5034326;28;20420;-79
2021/01/06 07:55:55;;;;;;;15.27;8.87;;;3.70;87.50;;;;;;5037966;28;20521;-79
2021/01/06 07:58:43;;;;;;;14.30;7.70;;;3.70;87.30;;;;;;5027691;28;20486;-80
2021/01/06 08:01:32;;;;;;;14.97;8.40;;;3.70;87.10;;;;;;5053576;28;20443;-79
2021/01/06 08:04:23;;;;;;;14.73;7.90;;;3.70;87.10;;;;;;5035885;28;20811;-78
2021/01/06 08:06:51;;;;;;;9.77;6.90;;;3.80;87.00;;;;;;5049022;28;20440;-79
2021/01/06 08:09:27;;;;;;;16.53;8.27;;;3.80;87.60;;;;;;5053810;28;20415;-79
2021/01/06 08:11:53;;;;;;;14.47;8.03;;;3.80;86.70;;;;;;5056214;28;20426;-78
2021/01/06 08:14:26;;;;;;;14.50;9.33;;;3.80;86.50;;;;;;5061006;28;20951;-78
2021/01/06 08:16:56;;;;;;;15.37;9.27;;;3.90;86.40;;;;;;5058037;28;20452;-79
2021/01/06 08:19:35;;;;;;;17.97;11.33;;;3.90;86.30;;;;;;5055602;28;20528;-79
2021/01/06 08:22:09;;;;;;;18.73;13.00;;;4.00;86.40;;;;;;5038878;28;20526;-79
2021/01/06 08:24:48;;;;;;;18.30;11.20;;;4.00;86.20;;;;;;5057984;28;20456;-79
2021/01/06 08:27:25;;;;;;;23.70;12.87;;;4.00;86.30;;;;;;5060017;28;20492;-78
2021/01/06 08:30:12;;;;;;;20.83;10.80;;;4.10;86.60;;;;;;5042436;28;20432;-78
2021/01/06 08:32:39;;;;;;;15.37;10.40;;;4.10;86.90;;;;;;5056651;28;20416;-79
2021/01/06 08:35:09;;;;;;;16.70;10.70;;;4.10;87.00;;;;;;5054572;28;20408;-79
2021/01/06 08:37:39;;;;;;;16.90;12.63;;;4.00;87.10;;;;;;5018669;28;20590;-77
2021/01/06 08:40:27;;;;;;;32.37;15.87;;;4.00;87.50;;;;;;5036917;28;20424;-78
2021/01/06 08:42:53;;;;;;;30.67;22.13;;;4.10;87.80;;;;;;5035252;28;20407;-77
2021/01/06 08:45:32;;;;;;;22.67;15.40;;;4.00;87.50;;;;;;5035439;28;20413;-78
2021/01/06 08:48:13;;;;;;;27.47;16.97;;;4.00;88.00;;;;;;5052705;28;20424;-79
2021/01/06 08:50:42;;;;;;;19.93;12.63;;;4.00;88.20;;;;;;5052910;28;20446;-80
2021/01/06 08:53:08;;;;;;;22.97;14.20;;;4.00;88.40;;;;;;5054709;28;20575;-81
2021/01/06 08:55:40;;;;;;;22.83;12.70;;;4.00;88.40;;;;;;5056859;28;20458;-79
2021/01/06 08:58:11;;;;;;;26.67;13.67;;;4.00;88.70;;;;;;5056525;28;20170;-79
2021/01/06 09:00:41;;;;;;;20.20;12.97;;;4.00;88.40;;;;;;5052425;28;20812;-77
2021/01/06 09:03:06;;;;;;;21.23;13.13;;;4.00;88.50;;;;;;5054554;28;20427;-78
2021/01/06 09:05:57;;;;;;;23.60;13.13;;;4.00;88.80;;;;;;5052614;28;20416;-79
2021/01/06 09:08:44;;;;;;;18.10;10.27;;;4.10;88.60;;;;;;5052419;28;20178;-80
2021/01/06 09:11:31;;;;;;;21.63;12.40;;;4.10;88.20;;;;;;5052984;28;20428;-78
2021/01/06 09:14:21;;;;;;;17.67;11.00;;;4.10;87.90;;;;;;5052930;28;20428;-79
2021/01/06 09:16:54;;;;;;;19.10;11.00;;;4.10;87.80;;;;;;5053037;28;20452;-79
2021/01/06 09:19:28;;;;;;;31.00;15.63;;;4.10;87.60;;;;;;5049439;28;20511;-78
2021/01/06 09:21:55;;;;;;;26.23;13.77;;;4.10;87.90;;;;;;5053013;28;20811;-77
2021/01/06 09:24:32;;;;;;;29.03;15.00;;;4.10;87.90;;;;;;5052350;28;20824;-77
2021/01/06 09:27:04;;;;;;;20.50;11.87;;;4.10;88.20;;;;;;5051718;28;20729;-78
2021/01/06 09:29:37;;;;;;;25.03;13.50;;;4.10;87.60;;;;;;5055578;28;20416;-78
2021/01/06 09:32:18;;;;;;;22.17;12.03;;;4.10;87.90;;;;;;5040465;28;20412;-79
2021/01/06 09:34:48;;;;;;;26.17;14.73;;;4.10;87.70;;;;;;5061698;28;20424;-78
2021/01/06 09:37:29;;;;;;;25.07;13.73;;;4.10;87.60;;;;;;5059720;28;20443;-79
2021/01/06 09:40:03;;;;;;;24.17;12.77;;;4.10;87.40;;;;;;5055986;28;20482;-78
2021/01/06 09:42:31;;;;;;;26.30;14.43;;;4.20;88.00;;;;;;5056072;28;20404;-78
2021/01/06 09:44:57;;;;;;;31.40;14.50;;;4.20;88.00;;;;;;5051662;28;20417;-78
2021/01/06 09:47:34;;;;;;;25.80;14.60;;;4.30;87.70;;;;;;5046621;28;20812;-78
2021/01/06 09:50:13;;;;;;;22.77;12.60;;;4.50;87.30;;;;;;5047084;28;20444;-79
2021/01/06 09:52:43;;;;;;;26.73;14.83;;;4.50;86.90;;;;;;5051337;28;20473;-78
2021/01/06 09:55:15;;;;;;;29.93;15.43;;;4.60;86.70;;;;;;5053515;28;20479;-81
2021/01/06 09:57:41;;;;;;;28.73;14.77;;;4.70;86.60;;;;;;5053986;28;20471;-78
2021/01/06 10:00:34;;;;;;;24.13;13.53;;;4.70;85.70;;;;;;5055316;28;20499;-78
2021/01/06 10:03:00;;;;;;;20.43;12.20;;;4.80;84.80;;;;;;5055160;28;20424;-79
2021/01/06 10:05:55;;;;;;;26.57;12.47;;;4.80;84.70;;;;;;5054779;28;20485;-78
2021/01/06 10:08:46;;;;;;;25.63;12.67;;;4.80;84.70;;;;;;5056059;28;20448;-80
2021/01/06 10:11:30;;;;;;;24.70;12.90;;;4.80;85.20;;;;;;5038034;28;20446;-80
2021/01/06 10:14:10;;;;;;;24.43;12.90;;;4.90;84.40;;;;;;5045328;28;20419;-78
2021/01/06 10:16:45;;;;;;;20.17;10.67;;;5.20;84.70;;;;;;5046971;28;20456;-81
2021/01/06 10:19:25;;;;;;;21.83;13.43;;;5.40;84.20;;;;;;5057283;28;20905;-77
2021/01/06 10:22:25;;;;;;;21.87;11.77;;;5.50;82.70;;;;;;5057358;28;20455;-78
2021/01/06 10:25:03;;;;;;;23.40;12.53;;;5.60;82.00;;;;;;5054672;28;20455;-78
2021/01/06 10:27:52;;;;;;;26.13;15.20;;;5.70;81.00;;;;;;5044680;28;20510;-76
2021/01/06 10:30:20;;;;;;;25.60;13.33;;;5.60;79.40;;;;;;5058006;28;20428;-77
2021/01/06 10:33:04;;;;;;;31.13;15.30;;;5.40;80.80;;;;;;5062021;28;20419;-78
2021/01/06 10:35:41;;;;;;;27.30;14.80;;;5.30;81.60;;;;;;5059558;28;20517;-79
2021/01/06 10:38:24;;;;;;;30.13;15.57;;;5.10;80.00;;;;;;5055589;28;20430;-86
2021/01/06 10:40:56;;;;;;;37.00;17.07;;;5.00;81.20;;;;;;5056462;28;20439;-77
2021/01/06 10:43:38;;;;;;;34.07;16.40;;;4.80;81.40;;;;;;5058784;28;20458;-78
2021/01/06 10:46:42;;;;;;;37.77;16.13;;;4.70;81.80;;;;;;5059232;28;20420;-79
2021/01/06 10:49:18;;;;;;;26.70;14.30;;;4.60;82.10;;;;;;5045719;28;20982;-78
2021/01/06 10:51:59;;;;;;;30.13;15.87;;;4.50;82.50;;;;;;5056394;28;20447;-80
2021/01/06 10:54:37;;;;;;;47.90;19.67;;;4.40;82.30;;;;;;5043080;28;20619;-78
2021/01/06 10:57:46;;;;;;;41.00;17.50;;;4.40;83.80;;;;;;5039842;28;20509;-79
2021/01/06 11:00:16;;;;;;;94.60;32.47;;;4.40;83.80;;;;;;5030454;28;20494;-78
2021/01/06 11:02:58;;;;;;;62.90;25.23;;;4.40;84.10;;;;;;5037719;28;20408;-79
2021/01/06 11:05:27;;;;;;;24.97;14.73;;;4.50;83.90;;;;;;5057516;28;20416;-77
2021/01/06 11:08:24;;;;;;;57.30;19.60;;;4.50;83.30;;;;;;5034389;28;20412;-78
2021/01/06 11:10:52;;;;;;;46.13;18.83;;;4.50;82.60;;;;;;5055776;28;20796;-78
2021/01/06 11:13:51;;;;;;;34.90;15.63;;;4.50;81.70;;;;;;5043050;28;20789;-77
2021/01/06 11:16:22;;;;;;;32.13;12.53;;;4.50;81.00;;;;;;5056141;28;20448;-78
2021/01/06 11:18:50;;;;;;;18.90;11.07;;;4.60;81.20;;;;;;5055575;28;20426;-80
2021/01/06 11:21:41;;;;;;;24.67;15.03;;;4.70;81.30;;;;;;5055166;28;20507;-79
2021/01/06 11:24:32;;;;;;;16.60;11.27;;;4.70;81.40;;;;;;5038653;28;20404;-77
2021/01/06 11:27:00;;;;;;;20.83;10.83;;;4.70;80.40;;;;;;5037920;28;20471;-78
2021/01/06 11:29:55;;;;;;;19.47;10.87;;;4.70;80.60;;;;;;5056045;28;20446;-78
2021/01/06 11:32:30;;;;;;;12.70;8.60;;;4.70;80.90;;;;;;5057094;28;20490;-77
2021/01/06 11:35:10;;;;;;;16.03;8.73;;;4.70;80.40;;;;;;5055981;28;20404;-78
2021/01/06 11:37:40;;;;;;;13.20;8.20;;;4.70;80.20;;;;;;5055673;28;20504;-78
2021/01/06 11:40:26;;;;;;;14.83;8.37;;;4.70;80.00;;;;;;5039552;28;20435;-77
2021/01/06 11:43:26;;;;;;;12.77;8.10;;;4.60;79.00;;;;;;5042901;28;20434;-77
2021/01/06 11:45:52;;;;;;;12.73;8.33;;;4.50;78.20;;;;;;5044588;28;20754;-78
2021/01/06 11:48:38;;;;;;;11.00;6.57;;;4.50;78.20;;;;;;5017240;28;20441;-79
2021/01/06 11:51:21;;;;;;;15.37;8.40;;;4.50;78.20;;;;;;5052423;28;20514;-78
2021/01/06 11:53:57;;;;;;;12.23;8.53;;;4.60;78.60;;;;;;5054474;28;20909;-78
2021/01/06 11:56:30;;;;;;;13.80;8.70;;;4.60;78.70;;;;;;5056303;28;20444;-77
2021/01/06 11:59:12;;;;;;;14.13;9.00;;;4.60;79.50;;;;;;5055371;28;20466;-78
2021/01/06 12:01:59;;;;;;;15.17;8.70;;;4.60;78.70;;;;;;5054720;28;20455;-78
2021/01/06 12:04:54;;;;;;;15.10;9.80;;;4.60;79.00;;;;;;5055205;28;20396;-80
2021/01/06 12:07:30;;;;;;;17.10;9.80;;;4.60;79.10;;;;;;5017752;28;20412;-78
2021/01/06 12:10:06;;;;;;;15.87;9.43;;;4.60;78.70;;;;;;5052287;28;20425;-78
2021/01/06 12:12:44;;;;;;;16.60;8.97;;;4.60;78.50;;;;;;5054313;28;20466;-77
2021/01/06 12:15:30;;;;;;;22.40;9.37;;;4.60;78.00;;;;;;5034737;28;20492;-78
2021/01/06 12:18:00;;;;;;;13.33;8.40;;;4.60;77.90;;;;;;5038585;28;20766;-78
2021/01/06 12:20:30;;;;;;;18.13;8.90;;;4.60;78.00;;;;;;5055026;28;20440;-79
2021/01/06 12:23:19;;;;;;;21.67;11.83;;;4.50;77.50;;;;;;5054544;28;20511;-80
2021/01/06 12:25:49;;;;;;;21.47;11.60;;;4.60;78.20;;;;;;5052767;28;20413;-77
2021/01/06 12:28:41;;;;;;;15.87;10.77;;;4.50;78.10;;;;;;5054034;28;20420;-78
2021/01/06 12:31:06;;;;;;;19.40;10.80;;;4.50;78.70;;;;;;5052021;28;20479;-79
2021/01/06 12:33:44;;;;;;;18.83;12.43;;;4.50;78.70;;;;;;5053330;28;20452;-79
2021/01/06 12:36:32;;;;;;;29.43;16.90;;;4.50;79.10;;;;;;5055889;28;20263;-78
2021/01/06 12:39:38;;;;;;;24.33;12.70;;;4.40;79.00;;;;;;5054085;28;21003;-80
2021/01/06 12:42:18;;;;;;;26.73;14.40;;;4.40;79.60;;;;;;4973048;28;20427;-78
2021/01/06 12:45:01;;;;;;;25.23;12.70;;;4.40;80.00;;;;;;4976510;28;20434;-78
2021/01/06 12:47:32;;;;;;;22.23;13.43;;;4.40;79.60;;;;;;5034321;28;20417;-78
2021/01/06 12:50:14;;;;;;;29.43;15.27;;;4.30;79.20;;;;;;5054818;28;20444;-78
2021/01/06 12:52:44;;;;;;;24.13;14.63;;;4.30;78.80;;;;;;5055280;28;20424;-78
2021/01/06 12:55:31;;;;;;;31.33;15.43;;;4.30;79.20;;;;;;5034421;28;20415;-77
2021/01/06 12:58:17;;;;;;;35.33;18.20;;;4.40;79.50;;;;;;5054175;28;20423;-79
2021/01/06 13:00:45;;;;;;;26.57;15.40;;;4.40;80.10;;;;;;5028531;28;20453;-81
2021/01/06 13:03:31;;;;;;;29.77;14.97;;;4.40;79.40;;;;;;5035197;28;20409;-78
2021/01/06 13:06:11;;;;;;;29.43;15.60;;;4.50;79.50;;;;;;5053780;28;20416;-78
2021/01/06 13:09:15;;;;;;;31.37;15.33;;;4.50;79.00;;;;;;5053689;28;20408;-78
2021/01/06 13:11:41;;;;;;;33.90;17.13;;;4.60;79.20;;;;;;5042377;28;20529;-77
2021/01/06 13:14:28;;;;;;;31.83;15.37;;;4.60;78.40;;;;;;5052652;28;21104;-78
2021/01/06 13:17:02;;;;;;;29.30;15.10;;;4.60;77.50;;;;;;5054315;28;20201;-78
2021/01/06 13:19:33;;;;;;;28.57;15.83;;;4.60;77.70;;;;;;5054767;28;20416;-79
2021/01/06 13:22:18;;;;;;;27.43;14.93;;;4.60;77.30;;;;;;5052779;28;20447;-78
2021/01/06 13:24:47;;;;;;;29.13;15.57;;;4.60;78.50;;;;;;5054176;28;20435;-79
2021/01/06 13:27:52;;;;;;;23.20;13.27;;;4.60;78.10;;;;;;5037284;28;20404;-80